sensor_id;sensor_type;location;lat;lon;timestamp;P1;durP1;ratioP1;P2;durP2;ratioP2
46230;SDS011;31949;51.404;-0.038;2022-12-07T00:01:08;16.90;;;8.18;;
46230;SDS011;31949;51.404;-0.038;2022-12-07T00:03:44;11.25;;;6.97;;
46230;SDS011;31949;51.404;-0.038;2022-12-07T00:06:13;17.95;;;7.95;;
46230;SDS011;31949;51.404;-0.038;2022-12-07T00:08:41;10.40;;;6.68;;
46230;SDS011;31949;51.404;-0.038;2022-12-07T00:11:16;14.40;;;6.80;;
46230;SDS011;31949;51.404;-0.038;2022-12-07T00:13:45;10.88;;;6.85;;
46230;SDS011;31949;51.404;-0.038;2022-12-07T00:16:13;12.18;;;7.30;;
46230;SDS011;31949;51.404;-0.038;2022-12-07T00:18:42;16.13;;;6.78;;
46230;SDS011;31949;51.404;-0.038;2022-12-07T00:21:14;14.00;;;6.60;;
46230;SDS011;31949;51.404;-0.038;2022-12-07T00:23:45;11.98;;;6.93;;
46230;SDS011;31949;51.404;-0.038;2022-12-07T00:26:14;14.45;;;6.85;;
46230;SDS011;31949;51.404;-0.038;2022-12-07T00:28:51;8.82;;;5.68;;
46230;SDS011;31949;51.404;-0.038;2022-12-07T00:31:24;16.70;;;6.80;;
46230;SDS011;31949;51.404;-0.038;2022-12-07T00:33:53;16.25;;;8.13;;
46230;SDS011;31949;51.404;-0.038;2022-12-07T00:36:21;13.90;;;7.15;;
46230;SDS011;31949;51.404;-0.038;2022-12-07T00:38:53;12.40;;;6.90;;
46230;SDS011;31949;51.404;-0.038;2022-12-07T00:41:22;12.30;;;6.55;;
46230;SDS011;31949;51.404;-0.038;2022-12-07T00:43:50;11.05;;;6.78;;
46230;SDS011;31949;51.404;-0.038;2022-12-07T00:46:18;14.52;;;7.05;;
46230;SDS011;31949;51.404;-0.038;2022-12-07T00:48:47;14.88;;;6.65;;
46230;SDS011;31949;51.404;-0.038;2022-12-07T00:51:15;13.98;;;6.95;;
46230;SDS011;31949;51.404;-0.038;2022-12-07T00:53:44;15.82;;;6.53;;
46230;SDS011;31949;51.404;-0.038;2022-12-07T00:56:12;12.77;;;6.90;;
46230;SDS011;31949;51.404;-0.038;2022-12-07T00:58:41;12.00;;;7.50;;
46230;SDS011;31949;51.404;-0.038;2022-12-07T01:01:08;14.80;;;7.38;;
46230;SDS011;31949;51.404;-0.038;2022-12-07T01:03:37;14.40;;;6.50;;
46230;SDS011;31949;51.404;-0.038;2022-12-07T01:06:05;14.38;;;7.57;;
46230;SDS011;31949;51.404;-0.038;2022-12-07T01:08:32;18.05;;;9.13;;
46230;SDS011;31949;51.404;-0.038;2022-12-07T01:11:00;15.65;;;8.75;;
46230;SDS011;31949;51.404;-0.038;2022-12-07T01:13:30;19.88;;;9.52;;
46230;SDS011;31949;51.404;-0.038;2022-12-07T01:15:59;16.15;;;9.23;;
46230;SDS011;31949;51.404;-0.038;2022-12-07T01:18:28;15.13;;;7.95;;
46230;SDS011;31949;51.404;-0.038;2022-12-07T01:21:03;19.98;;;10.65;;
46230;SDS011;31949;51.404;-0.038;2022-12-07T01:23:34;14.25;;;9.15;;
46230;SDS011;31949;51.404;-0.038;2022-12-07T01:26:04;17.80;;;10.18;;
46230;SDS011;31949;51.404;-0.038;2022-12-07T01:28:33;17.88;;;8.82;;
46230;SDS011;31949;51.404;-0.038;2022-12-07T01:31:11;15.18;;;8.27;;
46230;SDS011;31949;51.404;-0.038;2022-12-07T01:33:42;16.25;;;9.93;;
46230;SDS011;31949;51.404;-0.038;2022-12-07T01:38:43;16.58;;;9.23;;
46230;SDS011;31949;51.404;-0.038;2022-12-07T01:41:11;14.77;;;8.75;;
46230;SDS011;31949;51.404;-0.038;2022-12-07T01:46:40;17.55;;;9.00;;
46230;SDS011;31949;51.404;-0.038;2022-12-07T01:49:09;21.30;;;9.48;;
46230;SDS011;31949;51.404;-0.038;2022-12-07T01:51:41;24.88;;;10.95;;
46230;SDS011;31949;51.404;-0.038;2022-12-07T01:54:09;16.58;;;9.07;;
46230;SDS011;31949;51.404;-0.038;2022-12-07T01:56:39;17.13;;;8.88;;
46230;SDS011;31949;51.404;-0.038;2022-12-07T01:59:10;19.85;;;9.02;;
46230;SDS011;31949;51.404;-0.038;2022-12-07T02:01:37;16.83;;;9.70;;
46230;SDS011;31949;51.404;-0.038;2022-12-07T02:04:05;15.90;;;9.48;;
46230;SDS011;31949;51.404;-0.038;2022-12-07T02:06:32;15.88;;;8.90;;
46230;SDS011;31949;51.404;-0.038;2022-12-07T02:09:02;13.32;;;8.35;;
46230;SDS011;31949;51.404;-0.038;2022-12-07T02:11:29;12.27;;;8.20;;
46230;SDS011;31949;51.404;-0.038;2022-12-07T02:13:57;13.25;;;8.45;;
46230;SDS011;31949;51.404;-0.038;2022-12-07T02:22:13;15.40;;;7.03;;
46230;SDS011;31949;51.404;-0.038;2022-12-07T02:25:30;11.98;;;6.72;;
46230;SDS011;31949;51.404;-0.038;2022-12-07T02:28:07;11.70;;;6.30;;
46230;SDS011;31949;51.404;-0.038;2022-12-07T02:30:46;16.15;;;7.60;;
46230;SDS011;31949;51.404;-0.038;2022-12-07T02:33:28;12.82;;;6.07;;
46230;SDS011;31949;51.404;-0.038;2022-12-07T02:36:26;10.02;;;5.32;;
46230;SDS011;31949;51.404;-0.038;2022-12-07T02:39:01;9.98;;;5.25;;
46230;SDS011;31949;51.404;-0.038;2022-12-07T02:42:00;11.52;;;5.70;;
46230;SDS011;31949;51.404;-0.038;2022-12-07T02:44:34;10.70;;;5.57;;
46230;SDS011;31949;51.404;-0.038;2022-12-07T02:47:03;11.82;;;5.50;;
46230;SDS011;31949;51.404;-0.038;2022-12-07T02:49:33;11.70;;;6.53;;
46230;SDS011;31949;51.404;-0.038;2022-12-07T02:52:03;9.60;;;5.45;;
46230;SDS011;31949;51.404;-0.038;2022-12-07T02:54:31;12.02;;;6.28;;
46230;SDS011;31949;51.404;-0.038;2022-12-07T03:08:13;12.98;;;7.40;;
46230;SDS011;31949;51.404;-0.038;2022-12-07T03:13:41;14.80;;;8.40;;
46230;SDS011;31949;51.404;-0.038;2022-12-07T03:16:37;17.38;;;7.25;;
46230;SDS011;31949;51.404;-0.038;2022-12-07T03:19:11;14.88;;;7.40;;
46230;SDS011;31949;51.404;-0.038;2022-12-07T03:21:44;18.45;;;8.80;;
46230;SDS011;31949;51.404;-0.038;2022-12-07T03:25:06;14.40;;;7.72;;
46230;SDS011;31949;51.404;-0.038;2022-12-07T03:27:28;12.70;;;7.30;;
46230;SDS011;31949;51.404;-0.038;2022-12-07T03:29:59;12.55;;;8.07;;
46230;SDS011;31949;51.404;-0.038;2022-12-07T03:40:48;18.70;;;11.45;;
46230;SDS011;31949;51.404;-0.038;2022-12-07T03:43:32;17.83;;;8.35;;
46230;SDS011;31949;51.404;-0.038;2022-12-07T03:54:08;15.13;;;9.88;;
46230;SDS011;31949;51.404;-0.038;2022-12-07T03:56:39;20.02;;;9.20;;
46230;SDS011;31949;51.404;-0.038;2022-12-07T03:59:08;15.23;;;8.63;;
46230;SDS011;31949;51.404;-0.038;2022-12-07T04:01:37;14.55;;;8.52;;
46230;SDS011;31949;51.404;-0.038;2022-12-07T04:04:04;13.23;;;8.10;;
46230;SDS011;31949;51.404;-0.038;2022-12-07T04:06:31;13.40;;;8.63;;
46230;SDS011;31949;51.404;-0.038;2022-12-07T04:08:58;15.52;;;8.70;;
46230;SDS011;31949;51.404;-0.038;2022-12-07T04:11:26;15.38;;;8.68;;
46230;SDS011;31949;51.404;-0.038;2022-12-07T04:13:53;15.88;;;8.63;;
46230;SDS011;31949;51.404;-0.038;2022-12-07T04:16:38;16.00;;;10.13;;
46230;SDS011;31949;51.404;-0.038;2022-12-07T04:19:10;14.57;;;9.10;;
46230;SDS011;31949;51.404;-0.038;2022-12-07T04:21:37;15.98;;;7.68;;
46230;SDS011;31949;51.404;-0.038;2022-12-07T04:24:04;18.13;;;8.43;;
46230;SDS011;31949;51.404;-0.038;2022-12-07T04:26:32;13.63;;;8.02;;
46230;SDS011;31949;51.404;-0.038;2022-12-07T04:28:59;16.20;;;8.48;;
46230;SDS011;31949;51.404;-0.038;2022-12-07T04:31:32;12.80;;;8.07;;
46230;SDS011;31949;51.404;-0.038;2022-12-07T04:34:00;18.25;;;9.05;;
46230;SDS011;31949;51.404;-0.038;2022-12-07T04:36:27;18.10;;;9.10;;
46230;SDS011;31949;51.404;-0.038;2022-12-07T04:38:55;16.75;;;9.80;;
46230;SDS011;31949;51.404;-0.038;2022-12-07T04:41:22;15.25;;;10.00;;
46230;SDS011;31949;51.404;-0.038;2022-12-07T04:43:59;16.67;;;8.77;;
46230;SDS011;31949;51.404;-0.038;2022-12-07T04:46:28;14.10;;;9.75;;
46230;SDS011;31949;51.404;-0.038;2022-12-07T04:48:57;21.90;;;11.05;;
46230;SDS011;31949;51.404;-0.038;2022-12-07T04:51:25;17.75;;;8.63;;
46230;SDS011;31949;51.404;-0.038;2022-12-07T04:53:54;16.05;;;8.93;;
46230;SDS011;31949;51.404;-0.038;2022-12-07T04:56:22;15.45;;;8.73;;
46230;SDS011;31949;51.404;-0.038;2022-12-07T04:58:52;18.48;;;9.02;;
46230;SDS011;31949;51.404;-0.038;2022-12-07T05:01:20;18.38;;;9.60;;
46230;SDS011;31949;51.404;-0.038;2022-12-07T05:03:48;15.63;;;9.30;;
46230;SDS011;31949;51.404;-0.038;2022-12-07T05:06:15;12.93;;;8.80;;
46230;SDS011;31949;51.404;-0.038;2022-12-07T05:08:44;16.30;;;7.20;;
46230;SDS011;31949;51.404;-0.038;2022-12-07T05:11:11;19.23;;;8.07;;
46230;SDS011;31949;51.404;-0.038;2022-12-07T05:13:59;12.48;;;7.82;;
46230;SDS011;31949;51.404;-0.038;2022-12-07T05:16:27;14.93;;;7.43;;
46230;SDS011;31949;51.404;-0.038;2022-12-07T05:18:55;11.63;;;6.88;;
46230;SDS011;31949;51.404;-0.038;2022-12-07T05:21:22;12.35;;;7.63;;
46230;SDS011;31949;51.404;-0.038;2022-12-07T05:23:49;14.35;;;8.63;;
46230;SDS011;31949;51.404;-0.038;2022-12-07T05:26:16;13.48;;;8.05;;
46230;SDS011;31949;51.404;-0.038;2022-12-07T05:28:44;12.75;;;8.02;;
46230;SDS011;31949;51.404;-0.038;2022-12-07T05:31:11;11.27;;;7.32;;
46230;SDS011;31949;51.404;-0.038;2022-12-07T05:33:38;13.63;;;8.10;;
46230;SDS011;31949;51.404;-0.038;2022-12-07T05:36:05;13.27;;;7.28;;
46230;SDS011;31949;51.404;-0.038;2022-12-07T05:38:34;12.43;;;7.05;;
46230;SDS011;31949;51.404;-0.038;2022-12-07T05:41:05;12.23;;;7.28;;
46230;SDS011;31949;51.404;-0.038;2022-12-07T05:43:33;11.38;;;7.22;;
46230;SDS011;31949;51.404;-0.038;2022-12-07T05:46:00;10.73;;;6.75;;
46230;SDS011;31949;51.404;-0.038;2022-12-07T05:48:27;10.82;;;5.45;;
46230;SDS011;31949;51.404;-0.038;2022-12-07T05:50:54;8.05;;;6.40;;
46230;SDS011;31949;51.404;-0.038;2022-12-07T05:53:22;11.57;;;7.65;;
46230;SDS011;31949;51.404;-0.038;2022-12-07T05:55:49;13.35;;;6.05;;
46230;SDS011;31949;51.404;-0.038;2022-12-07T05:58:16;10.40;;;6.47;;
46230;SDS011;31949;51.404;-0.038;2022-12-07T06:01:02;15.13;;;6.80;;
46230;SDS011;31949;51.404;-0.038;2022-12-07T06:03:29;14.68;;;7.00;;
46230;SDS011;31949;51.404;-0.038;2022-12-07T06:05:56;11.18;;;5.90;;
46230;SDS011;31949;51.404;-0.038;2022-12-07T06:08:23;13.25;;;6.32;;
46230;SDS011;31949;51.404;-0.038;2022-12-07T06:10:51;9.93;;;6.88;;
46230;SDS011;31949;51.404;-0.038;2022-12-07T06:13:38;8.65;;;6.18;;
46230;SDS011;31949;51.404;-0.038;2022-12-07T06:16:12;10.93;;;6.55;;
46230;SDS011;31949;51.404;-0.038;2022-12-07T06:18:39;9.57;;;5.97;;
46230;SDS011;31949;51.404;-0.038;2022-12-07T06:21:07;11.18;;;6.22;;
46230;SDS011;31949;51.404;-0.038;2022-12-07T06:23:34;18.77;;;6.47;;
46230;SDS011;31949;51.404;-0.038;2022-12-07T06:26:01;8.88;;;5.80;;
46230;SDS011;31949;51.404;-0.038;2022-12-07T06:28:28;12.15;;;5.65;;
46230;SDS011;31949;51.404;-0.038;2022-12-07T06:30:59;7.15;;;5.63;;
46230;SDS011;31949;51.404;-0.038;2022-12-07T06:33:27;11.88;;;6.13;;
46230;SDS011;31949;51.404;-0.038;2022-12-07T06:35:55;11.18;;;6.22;;
46230;SDS011;31949;51.404;-0.038;2022-12-07T06:38:22;9.52;;;5.72;;
46230;SDS011;31949;51.404;-0.038;2022-12-07T06:40:49;12.68;;;6.80;;
46230;SDS011;31949;51.404;-0.038;2022-12-07T06:43:17;10.38;;;5.15;;
46230;SDS011;31949;51.404;-0.038;2022-12-07T06:45:44;8.77;;;5.65;;
46230;SDS011;31949;51.404;-0.038;2022-12-07T06:48:11;9.63;;;6.32;;
46230;SDS011;31949;51.404;-0.038;2022-12-07T06:50:38;15.38;;;7.20;;
46230;SDS011;31949;51.404;-0.038;2022-12-07T06:53:06;11.68;;;6.07;;
46230;SDS011;31949;51.404;-0.038;2022-12-07T06:55:34;10.02;;;6.20;;
46230;SDS011;31949;51.404;-0.038;2022-12-07T06:58:01;8.10;;;6.68;;
46230;SDS011;31949;51.404;-0.038;2022-12-07T07:00:29;7.60;;;5.25;;
46230;SDS011;31949;51.404;-0.038;2022-12-07T07:02:56;10.65;;;5.55;;
46230;SDS011;31949;51.404;-0.038;2022-12-07T07:05:23;12.38;;;6.53;;
46230;SDS011;31949;51.404;-0.038;2022-12-07T07:07:51;10.10;;;5.78;;
46230;SDS011;31949;51.404;-0.038;2022-12-07T07:10:38;12.68;;;5.88;;
46230;SDS011;31949;51.404;-0.038;2022-12-07T07:13:05;11.25;;;6.68;;
46230;SDS011;31949;51.404;-0.038;2022-12-07T07:15:33;11.05;;;6.80;;
46230;SDS011;31949;51.404;-0.038;2022-12-07T07:18:01;13.52;;;6.32;;
46230;SDS011;31949;51.404;-0.038;2022-12-07T07:20:33;9.45;;;5.75;;
46230;SDS011;31949;51.404;-0.038;2022-12-07T07:23:01;11.43;;;6.05;;
46230;SDS011;31949;51.404;-0.038;2022-12-07T07:25:28;9.57;;;6.10;;
46230;SDS011;31949;51.404;-0.038;2022-12-07T07:27:55;11.85;;;6.72;;
46230;SDS011;31949;51.404;-0.038;2022-12-07T07:30:23;9.32;;;6.40;;
46230;SDS011;31949;51.404;-0.038;2022-12-07T07:32:50;11.38;;;6.07;;
46230;SDS011;31949;51.404;-0.038;2022-12-07T07:35:17;14.43;;;6.50;;
46230;SDS011;31949;51.404;-0.038;2022-12-07T07:37:45;12.95;;;6.75;;
46230;SDS011;31949;51.404;-0.038;2022-12-07T07:40:12;11.05;;;6.28;;
46230;SDS011;31949;51.404;-0.038;2022-12-07T07:42:40;11.95;;;7.03;;
46230;SDS011;31949;51.404;-0.038;2022-12-07T07:45:07;11.85;;;5.80;;
46230;SDS011;31949;51.404;-0.038;2022-12-07T07:47:35;12.32;;;6.85;;
46230;SDS011;31949;51.404;-0.038;2022-12-07T07:50:02;14.50;;;5.70;;
46230;SDS011;31949;51.404;-0.038;2022-12-07T07:52:30;10.23;;;6.22;;
46230;SDS011;31949;51.404;-0.038;2022-12-07T07:54:58;13.35;;;6.43;;
46230;SDS011;31949;51.404;-0.038;2022-12-07T07:57:25;12.30;;;6.63;;
46230;SDS011;31949;51.404;-0.038;2022-12-07T07:59:52;16.73;;;7.82;;
46230;SDS011;31949;51.404;-0.038;2022-12-07T08:02:19;12.10;;;7.05;;
46230;SDS011;31949;51.404;-0.038;2022-12-07T08:04:47;10.50;;;6.75;;
46230;SDS011;31949;51.404;-0.038;2022-12-07T08:07:14;12.80;;;5.90;;
46230;SDS011;31949;51.404;-0.038;2022-12-07T08:09:42;7.95;;;6.18;;
46230;SDS011;31949;51.404;-0.038;2022-12-07T08:12:09;10.38;;;6.05;;
46230;SDS011;31949;51.404;-0.038;2022-12-07T08:14:36;10.38;;;6.13;;
46230;SDS011;31949;51.404;-0.038;2022-12-07T08:17:03;22.02;;;6.70;;
46230;SDS011;31949;51.404;-0.038;2022-12-07T08:19:31;12.23;;;7.63;;
46230;SDS011;31949;51.404;-0.038;2022-12-07T08:21:58;17.52;;;8.43;;
46230;SDS011;31949;51.404;-0.038;2022-12-07T08:24:25;13.52;;;6.05;;
46230;SDS011;31949;51.404;-0.038;2022-12-07T08:26:52;14.40;;;6.68;;
46230;SDS011;31949;51.404;-0.038;2022-12-07T08:29:20;12.93;;;7.57;;
46230;SDS011;31949;51.404;-0.038;2022-12-07T08:31:47;12.88;;;6.15;;
46230;SDS011;31949;51.404;-0.038;2022-12-07T08:34:14;14.43;;;7.50;;
46230;SDS011;31949;51.404;-0.038;2022-12-07T08:36:41;9.85;;;6.43;;
46230;SDS011;31949;51.404;-0.038;2022-12-07T08:39:09;8.75;;;6.05;;
46230;SDS011;31949;51.404;-0.038;2022-12-07T08:41:56;15.38;;;7.20;;
46230;SDS011;31949;51.404;-0.038;2022-12-07T08:44:23;14.15;;;7.53;;
46230;SDS011;31949;51.404;-0.038;2022-12-07T08:46:55;12.65;;;7.88;;
46230;SDS011;31949;51.404;-0.038;2022-12-07T08:49:30;16.65;;;7.95;;
46230;SDS011;31949;51.404;-0.038;2022-12-07T08:52:01;11.57;;;6.90;;
46230;SDS011;31949;51.404;-0.038;2022-12-07T08:54:30;11.35;;;6.65;;
46230;SDS011;31949;51.404;-0.038;2022-12-07T08:56:59;9.40;;;6.30;;
46230;SDS011;31949;51.404;-0.038;2022-12-07T08:59:27;13.90;;;6.80;;
46230;SDS011;31949;51.404;-0.038;2022-12-07T09:01:56;14.45;;;6.55;;
46230;SDS011;31949;51.404;-0.038;2022-12-07T09:04:23;12.57;;;5.80;;
46230;SDS011;31949;51.404;-0.038;2022-12-07T09:06:50;11.68;;;5.65;;
46230;SDS011;31949;51.404;-0.038;2022-12-07T09:09:18;12.10;;;6.25;;
46230;SDS011;31949;51.404;-0.038;2022-12-07T09:11:45;9.25;;;6.63;;
46230;SDS011;31949;51.404;-0.038;2022-12-07T09:14:12;11.25;;;6.18;;
46230;SDS011;31949;51.404;-0.038;2022-12-07T09:16:40;14.75;;;5.93;;
46230;SDS011;31949;51.404;-0.038;2022-12-07T09:19:07;12.77;;;6.20;;
46230;SDS011;31949;51.404;-0.038;2022-12-07T09:21:34;8.38;;;5.95;;
46230;SDS011;31949;51.404;-0.038;2022-12-07T09:24:02;11.43;;;6.05;;
46230;SDS011;31949;51.404;-0.038;2022-12-07T09:26:29;7.82;;;5.63;;
46230;SDS011;31949;51.404;-0.038;2022-12-07T09:28:56;10.13;;;4.82;;
46230;SDS011;31949;51.404;-0.038;2022-12-07T09:31:24;13.25;;;6.30;;
46230;SDS011;31949;51.404;-0.038;2022-12-07T09:33:56;11.70;;;5.20;;
46230;SDS011;31949;51.404;-0.038;2022-12-07T09:36:25;9.43;;;5.63;;
46230;SDS011;31949;51.404;-0.038;2022-12-07T09:38:53;6.72;;;4.68;;
46230;SDS011;31949;51.404;-0.038;2022-12-07T09:41:21;9.05;;;4.65;;
46230;SDS011;31949;51.404;-0.038;2022-12-07T09:43:50;13.57;;;5.35;;
46230;SDS011;31949;51.404;-0.038;2022-12-07T09:46:19;12.02;;;5.10;;
46230;SDS011;31949;51.404;-0.038;2022-12-07T09:48:47;11.57;;;6.07;;
46230;SDS011;31949;51.404;-0.038;2022-12-07T09:53:51;12.52;;;6.00;;
46230;SDS011;31949;51.404;-0.038;2022-12-07T09:56:20;15.70;;;6.68;;
46230;SDS011;31949;51.404;-0.038;2022-12-07T09:58:49;10.48;;;6.43;;
46230;SDS011;31949;51.404;-0.038;2022-12-07T10:01:22;14.70;;;6.88;;
46230;SDS011;31949;51.404;-0.038;2022-12-07T10:03:53;13.27;;;5.85;;
46230;SDS011;31949;51.404;-0.038;2022-12-07T10:06:25;13.57;;;7.15;;
46230;SDS011;31949;51.404;-0.038;2022-12-07T10:08:52;11.00;;;6.47;;
46230;SDS011;31949;51.404;-0.038;2022-12-07T10:11:19;13.93;;;6.70;;
46230;SDS011;31949;51.404;-0.038;2022-12-07T10:13:49;11.15;;;6.55;;
46230;SDS011;31949;51.404;-0.038;2022-12-07T10:18:51;9.65;;;5.55;;
46230;SDS011;31949;51.404;-0.038;2022-12-07T10:21:20;15.50;;;7.63;;
46230;SDS011;31949;51.404;-0.038;2022-12-07T10:24:05;7.75;;;5.35;;
46230;SDS011;31949;51.404;-0.038;2022-12-07T10:29:35;11.50;;;5.85;;
46230;SDS011;31949;51.404;-0.038;2022-12-07T10:32:06;9.85;;;5.70;;
46230;SDS011;31949;51.404;-0.038;2022-12-07T10:34:42;13.45;;;5.53;;
46230;SDS011;31949;51.404;-0.038;2022-12-07T10:37:16;10.18;;;5.28;;
46230;SDS011;31949;51.404;-0.038;2022-12-07T10:39:51;14.18;;;6.00;;
46230;SDS011;31949;51.404;-0.038;2022-12-07T10:42:23;13.85;;;5.22;;
46230;SDS011;31949;51.404;-0.038;2022-12-07T10:47:52;12.85;;;6.63;;
46230;SDS011;31949;51.404;-0.038;2022-12-07T10:59:22;16.40;;;8.38;;
46230;SDS011;31949;51.404;-0.038;2022-12-07T11:08:01;17.20;;;8.45;;
46230;SDS011;31949;51.404;-0.038;2022-12-07T11:10:44;14.38;;;7.72;;
46230;SDS011;31949;51.404;-0.038;2022-12-07T11:16:21;12.70;;;7.30;;
46230;SDS011;31949;51.404;-0.038;2022-12-07T11:19:11;14.65;;;7.70;;
46230;SDS011;31949;51.404;-0.038;2022-12-07T11:21:58;12.30;;;8.10;;
46230;SDS011;31949;51.404;-0.038;2022-12-07T11:30:06;13.35;;;7.22;;
46230;SDS011;31949;51.404;-0.038;2022-12-07T11:32:43;14.07;;;7.45;;
46230;SDS011;31949;51.404;-0.038;2022-12-07T11:35:26;13.73;;;8.07;;
46230;SDS011;31949;51.404;-0.038;2022-12-07T11:38:33;13.68;;;7.82;;
46230;SDS011;31949;51.404;-0.038;2022-12-07T11:41:04;22.13;;;13.43;;
46230;SDS011;31949;51.404;-0.038;2022-12-07T11:46:19;13.77;;;7.50;;
46230;SDS011;31949;51.404;-0.038;2022-12-07T11:49:02;16.17;;;8.55;;
46230;SDS011;31949;51.404;-0.038;2022-12-07T11:51:33;12.85;;;8.13;;
46230;SDS011;31949;51.404;-0.038;2022-12-07T11:54:18;13.77;;;7.25;;
46230;SDS011;31949;51.404;-0.038;2022-12-07T11:56:50;11.82;;;6.40;;
46230;SDS011;31949;51.404;-0.038;2022-12-07T11:59:25;14.10;;;7.30;;
46230;SDS011;31949;51.404;-0.038;2022-12-07T12:02:16;14.07;;;8.15;;
46230;SDS011;31949;51.404;-0.038;2022-12-07T12:07:26;11.75;;;7.45;;
46230;SDS011;31949;51.404;-0.038;2022-12-07T12:21:58;14.68;;;8.65;;
46230;SDS011;31949;51.404;-0.038;2022-12-07T12:24:37;16.02;;;8.30;;
46230;SDS011;31949;51.404;-0.038;2022-12-07T12:27:07;11.27;;;7.32;;
46230;SDS011;31949;51.404;-0.038;2022-12-07T12:29:42;15.07;;;8.70;;
46230;SDS011;31949;51.404;-0.038;2022-12-07T12:32:15;12.35;;;6.70;;
46230;SDS011;31949;51.404;-0.038;2022-12-07T12:45:21;13.25;;;7.18;;
46230;SDS011;31949;51.404;-0.038;2022-12-07T12:50:29;9.57;;;5.53;;
46230;SDS011;31949;51.404;-0.038;2022-12-07T12:53:04;10.05;;;6.57;;
46230;SDS011;31949;51.404;-0.038;2022-12-07T13:00:47;8.43;;;6.45;;
46230;SDS011;31949;51.404;-0.038;2022-12-07T13:03:36;11.15;;;6.72;;
46230;SDS011;31949;51.404;-0.038;2022-12-07T13:06:45;10.73;;;6.85;;
46230;SDS011;31949;51.404;-0.038;2022-12-07T13:08:54;10.70;;;6.93;;
46230;SDS011;31949;51.404;-0.038;2022-12-07T13:11:34;9.30;;;6.03;;
46230;SDS011;31949;51.404;-0.038;2022-12-07T13:15:30;14.63;;;6.57;;
46230;SDS011;31949;51.404;-0.038;2022-12-07T13:27:50;7.78;;;5.68;;
46230;SDS011;31949;51.404;-0.038;2022-12-07T13:30:30;12.05;;;7.88;;
46230;SDS011;31949;51.404;-0.038;2022-12-07T13:32:58;16.45;;;7.47;;
46230;SDS011;31949;51.404;-0.038;2022-12-07T13:35:27;14.60;;;7.30;;
46230;SDS011;31949;51.404;-0.038;2022-12-07T13:38:05;12.70;;;7.18;;
46230;SDS011;31949;51.404;-0.038;2022-12-07T13:40:59;12.15;;;7.68;;
46230;SDS011;31949;51.404;-0.038;2022-12-07T13:43:31;13.40;;;6.38;;
46230;SDS011;31949;51.404;-0.038;2022-12-07T13:46:08;14.15;;;7.28;;
46230;SDS011;31949;51.404;-0.038;2022-12-07T13:48:45;10.70;;;6.43;;
46230;SDS011;31949;51.404;-0.038;2022-12-07T13:51:19;11.82;;;6.80;;
46230;SDS011;31949;51.404;-0.038;2022-12-07T13:53:53;8.77;;;5.00;;
46230;SDS011;31949;51.404;-0.038;2022-12-07T13:56:22;11.00;;;5.93;;
46230;SDS011;31949;51.404;-0.038;2022-12-07T13:59:12;18.92;;;6.28;;
46230;SDS011;31949;51.404;-0.038;2022-12-07T14:01:47;14.23;;;6.95;;
46230;SDS011;31949;51.404;-0.038;2022-12-07T14:04:32;11.80;;;4.82;;
46230;SDS011;31949;51.404;-0.038;2022-12-07T14:07:26;9.15;;;5.38;;
46230;SDS011;31949;51.404;-0.038;2022-12-07T14:10:02;14.00;;;5.10;;
46230;SDS011;31949;51.404;-0.038;2022-12-07T14:12:32;20.75;;;11.95;;
46230;SDS011;31949;51.404;-0.038;2022-12-07T14:15:02;8.30;;;5.05;;
46230;SDS011;31949;51.404;-0.038;2022-12-07T14:17:31;8.02;;;5.30;;
46230;SDS011;31949;51.404;-0.038;2022-12-07T14:19:59;11.88;;;6.05;;
46230;SDS011;31949;51.404;-0.038;2022-12-07T14:22:28;8.82;;;6.28;;
46230;SDS011;31949;51.404;-0.038;2022-12-07T14:27:46;8.70;;;6.28;;
46230;SDS011;31949;51.404;-0.038;2022-12-07T14:30:37;13.25;;;6.05;;
46230;SDS011;31949;51.404;-0.038;2022-12-07T14:33:04;11.13;;;6.53;;
46230;SDS011;31949;51.404;-0.038;2022-12-07T14:35:32;12.82;;;6.10;;
46230;SDS011;31949;51.404;-0.038;2022-12-07T14:37:59;9.80;;;5.30;;
46230;SDS011;31949;51.404;-0.038;2022-12-07T14:40:27;9.70;;;5.47;;
46230;SDS011;31949;51.404;-0.038;2022-12-07T14:43:03;9.38;;;5.32;;
46230;SDS011;31949;51.404;-0.038;2022-12-07T14:45:35;9.18;;;5.47;;
46230;SDS011;31949;51.404;-0.038;2022-12-07T14:48:02;9.90;;;4.90;;
46230;SDS011;31949;51.404;-0.038;2022-12-07T14:50:51;9.30;;;4.78;;
46230;SDS011;31949;51.404;-0.038;2022-12-07T14:53:40;9.45;;;4.45;;
46230;SDS011;31949;51.404;-0.038;2022-12-07T14:56:23;10.40;;;4.82;;
46230;SDS011;31949;51.404;-0.038;2022-12-07T14:58:51;8.73;;;5.40;;
46230;SDS011;31949;51.404;-0.038;2022-12-07T15:01:18;9.70;;;5.13;;
46230;SDS011;31949;51.404;-0.038;2022-12-07T15:03:45;8.43;;;5.05;;
46230;SDS011;31949;51.404;-0.038;2022-12-07T15:06:14;7.90;;;5.75;;
46230;SDS011;31949;51.404;-0.038;2022-12-07T15:08:44;6.95;;;5.38;;
46230;SDS011;31949;51.404;-0.038;2022-12-07T15:11:15;9.40;;;4.40;;
46230;SDS011;31949;51.404;-0.038;2022-12-07T15:13:43;9.82;;;5.63;;
46230;SDS011;31949;51.404;-0.038;2022-12-07T15:16:29;12.48;;;5.80;;
46230;SDS011;31949;51.404;-0.038;2022-12-07T15:19:18;9.65;;;5.80;;
46230;SDS011;31949;51.404;-0.038;2022-12-07T15:21:54;10.38;;;5.43;;
46230;SDS011;31949;51.404;-0.038;2022-12-07T15:24:22;8.13;;;5.28;;
46230;SDS011;31949;51.404;-0.038;2022-12-07T15:26:50;10.65;;;4.90;;
46230;SDS011;31949;51.404;-0.038;2022-12-07T15:29:19;11.85;;;5.68;;
46230;SDS011;31949;51.404;-0.038;2022-12-07T15:31:51;12.25;;;5.78;;
46230;SDS011;31949;51.404;-0.038;2022-12-07T15:34:26;9.52;;;5.60;;
46230;SDS011;31949;51.404;-0.038;2022-12-07T15:37:05;9.30;;;5.77;;
46230;SDS011;31949;51.404;-0.038;2022-12-07T15:39:33;8.85;;;5.85;;
46230;SDS011;31949;51.404;-0.038;2022-12-07T15:42:00;15.25;;;6.93;;
46230;SDS011;31949;51.404;-0.038;2022-12-07T15:44:28;10.63;;;5.88;;
46230;SDS011;31949;51.404;-0.038;2022-12-07T15:47:13;8.88;;;6.25;;
46230;SDS011;31949;51.404;-0.038;2022-12-07T15:49:41;11.43;;;5.40;;
46230;SDS011;31949;51.404;-0.038;2022-12-07T15:52:08;10.88;;;5.38;;
46230;SDS011;31949;51.404;-0.038;2022-12-07T15:54:35;8.60;;;5.10;;
46230;SDS011;31949;51.404;-0.038;2022-12-07T15:57:03;10.43;;;6.72;;
46230;SDS011;31949;51.404;-0.038;2022-12-07T15:59:30;13.02;;;5.50;;
46230;SDS011;31949;51.404;-0.038;2022-12-07T16:01:58;9.15;;;4.70;;
46230;SDS011;31949;51.404;-0.038;2022-12-07T16:04:26;11.50;;;5.22;;
46230;SDS011;31949;51.404;-0.038;2022-12-07T16:06:56;11.82;;;5.18;;
46230;SDS011;31949;51.404;-0.038;2022-12-07T16:09:23;12.55;;;5.78;;
46230;SDS011;31949;51.404;-0.038;2022-12-07T16:11:50;10.10;;;5.45;;
46230;SDS011;31949;51.404;-0.038;2022-12-07T16:14:19;8.20;;;4.18;;
46230;SDS011;31949;51.404;-0.038;2022-12-07T16:16:46;12.98;;;6.72;;
46230;SDS011;31949;51.404;-0.038;2022-12-07T16:19:14;8.85;;;6.53;;
46230;SDS011;31949;51.404;-0.038;2022-12-07T16:21:42;16.15;;;10.10;;
46230;SDS011;31949;51.404;-0.038;2022-12-07T16:24:09;29.25;;;19.35;;
46230;SDS011;31949;51.404;-0.038;2022-12-07T16:26:41;43.85;;;28.55;;
46230;SDS011;31949;51.404;-0.038;2022-12-07T16:29:16;33.78;;;21.65;;
46230;SDS011;31949;51.404;-0.038;2022-12-07T16:31:44;25.30;;;16.42;;
46230;SDS011;31949;51.404;-0.038;2022-12-07T16:34:12;15.70;;;10.93;;
46230;SDS011;31949;51.404;-0.038;2022-12-07T16:36:39;13.10;;;9.18;;
46230;SDS011;31949;51.404;-0.038;2022-12-07T16:39:26;13.18;;;7.55;;
46230;SDS011;31949;51.404;-0.038;2022-12-07T16:41:54;12.70;;;7.80;;
46230;SDS011;31949;51.404;-0.038;2022-12-07T16:44:21;12.63;;;7.63;;
46230;SDS011;31949;51.404;-0.038;2022-12-07T16:46:48;11.25;;;7.70;;
46230;SDS011;31949;51.404;-0.038;2022-12-07T16:49:15;14.25;;;8.63;;
46230;SDS011;31949;51.404;-0.038;2022-12-07T16:51:43;15.50;;;8.23;;
46230;SDS011;31949;51.404;-0.038;2022-12-07T16:54:11;9.68;;;7.53;;